KES weather

Kelsey Airport
Kelsey, Manitoba, Canada

Public forecast

Using degrees Celsius for public forecast. Weather courtesy of forecast.io.

Closest aviation weather report (METAR) to Kelsey Airport

Closest report is Thompson Airport, 47.7 nm (88.4 km) WSW. Retrieved 2019/11/21 02:00 UTC (8 minutes ago):

CYTH 210200Z 31006KT 15SM -SN DRSN SCT030 OVC060 M12/M14 A3010 RMK SC3SC5 SLP218

Closest aviation forecast (TAF) to Kelsey Airport

Closest forecast is Thompson Airport, 47.7 nm (88.4 km) WSW. Retrieved 2019-11-21 01:42 UTC (26 minutes ago):

TAF CYTH 210041Z 2101/2113 30008KT P6SM SCT015 OVC050 TEMPO 2101/2113 5SM -SN SCT008 BKN015 OVC030 BECMG 2106/2108 VRB03KT RMK NXT FCST BY 210700Z